Time;durP1;ratioP1;P1;durP2;ratioP2;P2;SDS_P1;SDS_P2;PMS_P1;PMS_P2;Temp;Humidity;BMP_temperature;BMP_pressure;BME280_temperature;BME280_humidity;BME280_pressure;Samples;Min_cycle;Max_cycle;Signal;HPM_P1;HPM_P2
2021/10/20 00:01:49;;;;;;;3.40;1.90;;;11.70;99.90;;;;;;4979196;28;20023;-77
2021/10/20 00:04:17;;;;;;;3.00;2.05;;;11.70;99.90;;;;;;4978619;28;20353;-77
2021/10/20 00:06:43;;;;;;;3.10;2.00;;;11.70;99.90;;;;;;4976785;28;20046;-77
2021/10/20 00:09:09;;;;;;;2.83;1.90;;;11.70;99.90;;;;;;4977184;28;20027;-77
2021/10/20 00:11:36;;;;;;;2.13;1.60;;;11.70;99.90;;;;;;4979618;28;20029;-78
2021/10/20 00:14:02;;;;;;;2.78;1.70;;;11.70;99.90;;;;;;4977251;28;20031;-78
2021/10/20 00:16:29;;;;;;;2.45;1.73;;;11.60;99.90;;;;;;4978401;28;20221;-77
2021/10/20 00:18:55;;;;;;;1.73;1.42;;;11.60;99.90;;;;;;4977838;28;20026;-77
2021/10/20 00:21:27;;;;;;;1.40;1.30;;;11.60;99.90;;;;;;4981604;28;20062;-78
2021/10/20 00:23:54;;;;;;;1.52;1.17;;;11.50;99.90;;;;;;4985378;28;20046;-78
2021/10/20 00:26:19;;;;;;;1.27;1.10;;;11.50;99.90;;;;;;4980559;28;20086;-78
2021/10/20 00:28:48;;;;;;;1.63;1.30;;;11.50;99.90;;;;;;4977715;28;20027;-78
2021/10/20 00:31:14;;;;;;;1.58;1.20;;;11.50;99.90;;;;;;4963551;28;20082;-78
2021/10/20 00:33:40;;;;;;;1.38;1.00;;;11.40;99.90;;;;;;4978556;28;20035;-78
2021/10/20 00:36:05;;;;;;;1.70;1.02;;;11.40;99.90;;;;;;4977976;28;20026;-78
2021/10/20 00:38:31;;;;;;;1.25;1.02;;;11.40;99.90;;;;;;4976778;28;20513;-77
2021/10/20 00:40:57;;;;;;;1.30;1.20;;;11.30;99.90;;;;;;4958685;28;20045;-77
2021/10/20 00:43:24;;;;;;;1.13;0.95;;;11.30;99.90;;;;;;4988891;28;20100;-76
2021/10/20 00:45:51;;;;;;;0.80;0.80;;;11.30;99.90;;;;;;4979894;28;20019;-78
2021/10/20 00:48:16;;;;;;;1.20;1.10;;;11.30;99.90;;;;;;4965755;28;20486;-78
2021/10/20 00:50:42;;;;;;;0.85;0.82;;;11.30;99.90;;;;;;4985270;28;20026;-78
2021/10/20 00:53:09;;;;;;;1.55;1.17;;;11.30;99.90;;;;;;4976844;28;20106;-77
2021/10/20 00:55:35;;;;;;;1.08;0.98;;;11.20;99.90;;;;;;4975511;28;20097;-79
2021/10/20 00:58:01;;;;;;;0.98;0.88;;;11.20;99.90;;;;;;4976532;28;20026;-77
2021/10/20 01:00:27;;;;;;;0.85;0.80;;;11.20;99.90;;;;;;4976505;28;20436;-78
2021/10/20 01:02:54;;;;;;;1.45;0.90;;;11.10;99.90;;;;;;4976285;28;20054;-78
2021/10/20 01:05:20;;;;;;;0.95;0.88;;;11.10;99.90;;;;;;4976244;28;20051;-77
2021/10/20 01:07:47;;;;;;;0.70;0.70;;;11.10;99.90;;;;;;4975377;28;20051;-77
2021/10/20 01:10:14;;;;;;;1.02;0.93;;;11.10;99.90;;;;;;4976612;28;20513;-78
2021/10/20 01:12:40;;;;;;;1.05;0.80;;;11.00;99.90;;;;;;4985813;28;20435;-78
2021/10/20 01:15:13;;;;;;;0.77;0.70;;;11.00;99.90;;;;;;4984335;28;20045;-78
2021/10/20 01:17:40;;;;;;;1.42;1.08;;;11.00;99.90;;;;;;4975969;28;20027;-77
2021/10/20 01:20:08;;;;;;;0.77;0.77;;;11.00;99.90;;;;;;4974521;28;20495;-77
2021/10/20 01:22:34;;;;;;;0.85;0.70;;;10.90;99.90;;;;;;4958258;28;20026;-79
2021/10/20 01:25:01;;;;;;;1.27;1.02;;;10.80;99.90;;;;;;4977041;28;20042;-77
2021/10/20 01:27:27;;;;;;;1.23;1.10;;;10.80;99.90;;;;;;4975694;28;20027;-78
2021/10/20 01:29:56;;;;;;;1.25;1.13;;;10.80;99.90;;;;;;4976205;28;20033;-78
2021/10/20 01:32:21;;;;;;;0.70;0.70;;;10.80;99.90;;;;;;4975731;28;20050;-78
2021/10/20 01:34:47;;;;;;;0.65;0.65;;;10.80;99.90;;;;;;4975911;28;20023;-78
2021/10/20 01:37:14;;;;;;;0.98;0.80;;;10.80;99.90;;;;;;4975474;28;20023;-77
2021/10/20 01:39:40;;;;;;;1.70;0.68;;;10.70;99.90;;;;;;4958670;28;20030;-77
2021/10/20 01:42:05;;;;;;;0.70;0.70;;;10.70;99.90;;;;;;4980278;28;20035;-78
2021/10/20 01:44:31;;;;;;;0.90;0.80;;;10.70;99.90;;;;;;4984628;28;20038;-77
2021/10/20 01:46:57;;;;;;;1.25;0.75;;;10.60;99.90;;;;;;4995829;28;20037;-76
2021/10/20 01:49:23;;;;;;;1.33;1.05;;;10.60;99.90;;;;;;4989331;28;20443;-78
2021/10/20 01:51:49;;;;;;;1.10;1.00;;;10.60;99.90;;;;;;4972251;28;20025;-78
2021/10/20 01:54:15;;;;;;;0.85;0.75;;;10.60;99.90;;;;;;4974920;28;20027;-78
2021/10/20 01:56:42;;;;;;;0.77;0.77;;;10.60;99.90;;;;;;4975830;28;20441;-77
2021/10/20 01:59:08;;;;;;;0.70;0.70;;;10.60;99.90;;;;;;4975503;28;20086;-78
2021/10/20 02:01:33;;;;;;;1.02;0.80;;;10.50;99.90;;;;;;4976715;28;20070;-78
2021/10/20 02:03:59;;;;;;;0.73;0.70;;;10.50;99.90;;;;;;4957265;28;20031;-77
2021/10/20 02:06:25;;;;;;;0.70;0.70;;;10.60;99.90;;;;;;4974477;28;20023;-77
2021/10/20 02:08:51;;;;;;;1.48;1.00;;;10.60;99.90;;;;;;4975646;28;20345;-79
2021/10/20 02:11:20;;;;;;;0.73;0.70;;;10.50;99.90;;;;;;4975690;28;20170;-77
2021/10/20 02:13:47;;;;;;;1.33;0.82;;;10.50;99.90;;;;;;4991930;28;20027;-78
2021/10/20 02:16:13;;;;;;;1.10;0.85;;;10.50;99.90;;;;;;4977290;28;20023;-78
2021/10/20 02:18:39;;;;;;;0.60;0.60;;;10.50;99.90;;;;;;4975223;28;20031;-78
2021/10/20 02:21:05;;;;;;;1.65;1.15;;;10.50;99.90;;;;;;4975095;28;20030;-78
2021/10/20 02:23:31;;;;;;;0.80;0.80;;;10.50;99.90;;;;;;4957368;28;20062;-78
2021/10/20 02:25:57;;;;;;;1.20;0.93;;;10.40;99.90;;;;;;4973745;28;20441;-77
2021/10/20 02:28:23;;;;;;;1.50;1.20;;;10.40;99.90;;;;;;4975229;28;20085;-78
2021/10/20 02:30:49;;;;;;;0.98;0.93;;;10.40;99.90;;;;;;4956997;28;20027;-77
2021/10/20 02:33:15;;;;;;;1.10;0.88;;;10.40;99.90;;;;;;4977076;28;20031;-77
2021/10/20 02:35:41;;;;;;;1.20;0.70;;;10.40;99.90;;;;;;4979009;28;20126;-77
2021/10/20 02:38:07;;;;;;;0.70;0.70;;;10.40;99.90;;;;;;4980451;28;20180;-78
2021/10/20 02:40:32;;;;;;;0.75;0.75;;;10.40;99.90;;;;;;4982775;28;20057;-78
2021/10/20 02:42:58;;;;;;;0.70;0.70;;;10.30;99.90;;;;;;4998134;28;20081;-77
2021/10/20 02:45:24;;;;;;;1.48;1.08;;;10.30;99.90;;;;;;4993730;28;20055;-78
2021/10/20 02:47:50;;;;;;;0.77;0.77;;;10.30;99.90;;;;;;4996898;28;20025;-77
2021/10/20 02:50:16;;;;;;;1.38;0.80;;;10.30;99.90;;;;;;4997273;28;20049;-77
2021/10/20 02:52:41;;;;;;;1.15;0.98;;;10.30;99.90;;;;;;4985539;28;20023;-77
2021/10/20 02:55:08;;;;;;;1.33;0.82;;;10.30;99.90;;;;;;4978121;28;20023;-77
2021/10/20 02:57:34;;;;;;;0.98;0.85;;;10.30;99.90;;;;;;4977560;28;20479;-77
2021/10/20 03:00:00;;;;;;;0.88;0.88;;;10.30;99.90;;;;;;4976965;28;20030;-76
2021/10/20 03:02:27;;;;;;;1.15;0.90;;;10.30;99.90;;;;;;4984537;28;20047;-78
2021/10/20 03:04:53;;;;;;;1.13;1.00;;;10.40;99.90;;;;;;4984462;28;20019;-78
2021/10/20 03:07:19;;;;;;;1.58;1.20;;;10.40;99.90;;;;;;4978338;28;20098;-78
2021/10/20 03:09:45;;;;;;;0.88;0.88;;;10.30;99.90;;;;;;4966336;28;20070;-77
2021/10/20 03:12:11;;;;;;;1.02;0.80;;;10.30;99.90;;;;;;4988424;28;20019;-76
2021/10/20 03:14:36;;;;;;;0.70;0.70;;;10.30;99.90;;;;;;4997196;28;20459;-77
2021/10/20 03:17:03;;;;;;;1.42;0.90;;;10.40;99.90;;;;;;4979019;28;20030;-76
2021/10/20 03:19:28;;;;;;;1.25;1.05;;;10.30;99.90;;;;;;4979698;28;20029;-77
2021/10/20 03:21:54;;;;;;;0.68;0.65;;;10.30;99.90;;;;;;4996452;28;20023;-77
2021/10/20 03:24:20;;;;;;;0.95;0.85;;;10.30;99.90;;;;;;5021285;22;20048;-79
2021/10/20 03:26:46;;;;;;;1.00;0.90;;;10.30;99.90;;;;;;4998261;28;20085;-80
2021/10/20 03:29:11;;;;;;;1.02;0.95;;;10.30;99.90;;;;;;4992677;28;20029;-80
2021/10/20 03:31:37;;;;;;;1.63;0.95;;;10.30;99.90;;;;;;4972273;28;20058;-80
2021/10/20 03:34:03;;;;;;;0.80;0.80;;;10.30;99.90;;;;;;4979572;28;20031;-81
2021/10/20 03:36:29;;;;;;;1.20;0.60;;;10.30;99.90;;;;;;4978438;28;20066;-80
2021/10/20 03:38:55;;;;;;;0.70;0.63;;;10.30;99.90;;;;;;4977851;28;20027;-80
2021/10/20 03:41:21;;;;;;;0.90;0.70;;;10.30;99.90;;;;;;4977765;28;20467;-79
2021/10/20 03:43:47;;;;;;;0.57;0.57;;;10.30;99.90;;;;;;4960292;28;20340;-81
2021/10/20 03:46:13;;;;;;;0.98;0.88;;;10.30;99.90;;;;;;4960199;28;20023;-79
2021/10/20 03:48:39;;;;;;;0.70;0.70;;;10.30;99.90;;;;;;4978171;28;20391;-79
2021/10/20 03:51:05;;;;;;;0.93;0.80;;;10.30;99.90;;;;;;4978160;28;20019;-80
2021/10/20 03:53:32;;;;;;;2.72;1.00;;;10.30;99.90;;;;;;4997139;28;20514;-80
2021/10/20 03:55:57;;;;;;;2.40;1.05;;;10.30;99.90;;;;;;4994442;28;20046;-81
2021/10/20 03:58:23;;;;;;;0.77;0.70;;;10.30;99.90;;;;;;4999283;28;20056;-80
2021/10/20 04:00:50;;;;;;;0.77;0.75;;;10.30;99.90;;;;;;4991433;28;20027;-80
2021/10/20 04:03:16;;;;;;;1.52;1.13;;;10.30;99.90;;;;;;5002951;28;20030;-80
2021/10/20 04:05:42;;;;;;;1.55;0.70;;;10.30;99.90;;;;;;4999407;28;20018;-81
2021/10/20 04:08:08;;;;;;;1.02;0.93;;;10.30;99.90;;;;;;4998451;28;20026;-79
2021/10/20 04:10:33;;;;;;;1.33;1.00;;;10.30;99.90;;;;;;4981594;28;20022;-80
2021/10/20 04:12:59;;;;;;;0.82;0.82;;;10.30;99.90;;;;;;4998460;28;20067;-80
2021/10/20 04:15:35;;;;;;;0.70;0.70;;;10.30;99.90;;;;;;4997734;28;20101;-78
2021/10/20 04:18:01;;;;;;;1.60;0.90;;;10.30;99.90;;;;;;4984519;28;20026;-81
2021/10/20 04:20:27;;;;;;;1.40;0.80;;;10.30;99.90;;;;;;4997631;28;20479;-79
2021/10/20 04:22:53;;;;;;;0.88;0.70;;;10.30;99.90;;;;;;4999340;28;20057;-79
2021/10/20 04:25:20;;;;;;;0.85;0.85;;;10.30;99.90;;;;;;4986505;28;20038;-79
2021/10/20 04:27:48;;;;;;;0.85;0.80;;;10.30;99.90;;;;;;4980445;28;20022;-79
2021/10/20 04:30:15;;;;;;;3.40;0.88;;;10.30;99.90;;;;;;4985381;28;20030;-79
2021/10/20 04:32:42;;;;;;;1.48;1.00;;;10.20;99.90;;;;;;4986455;28;20019;-79
2021/10/20 04:35:09;;;;;;;1.05;0.98;;;10.20;99.90;;;;;;4980846;28;20133;-78
2021/10/20 04:37:35;;;;;;;1.40;0.88;;;10.20;99.90;;;;;;4985952;28;20106;-79
2021/10/20 04:40:03;;;;;;;1.23;0.95;;;10.20;99.90;;;;;;4989513;28;20030;-79
2021/10/20 04:42:30;;;;;;;1.23;0.90;;;10.20;99.90;;;;;;4974697;28;20027;-79
2021/10/20 04:44:57;;;;;;;2.28;0.80;;;10.20;99.90;;;;;;4981174;28;20031;-79
2021/10/20 04:47:23;;;;;;;1.38;1.13;;;10.20;99.90;;;;;;4980181;28;20114;-79
2021/10/20 04:49:50;;;;;;;2.35;0.90;;;10.20;99.90;;;;;;4979406;28;20054;-80
2021/10/20 04:52:16;;;;;;;0.85;0.80;;;10.30;99.90;;;;;;4982925;28;20022;-80
2021/10/20 04:54:42;;;;;;;0.65;0.55;;;10.30;99.90;;;;;;4986043;28;20188;-80
2021/10/20 04:57:09;;;;;;;0.93;0.77;;;10.30;99.90;;;;;;4979558;28;20026;-80
2021/10/20 04:59:35;;;;;;;1.48;1.02;;;10.30;99.90;;;;;;4962327;28;20087;-80
2021/10/20 05:02:04;;;;;;;0.90;0.80;;;10.30;99.90;;;;;;4983168;28;20027;-80
2021/10/20 05:04:30;;;;;;;2.88;1.05;;;10.30;99.90;;;;;;4966855;28;20484;-79
2021/10/20 05:06:57;;;;;;;0.70;0.70;;;10.30;99.90;;;;;;4979717;28;20029;-80
2021/10/20 05:09:23;;;;;;;1.33;1.10;;;10.30;99.90;;;;;;4961766;28;20037;-80
2021/10/20 05:11:49;;;;;;;0.82;0.82;;;10.30;99.90;;;;;;4979097;28;20025;-79
2021/10/20 05:14:14;;;;;;;0.70;0.70;;;10.20;99.90;;;;;;4979236;28;20019;-79
2021/10/20 05:16:40;;;;;;;1.20;0.93;;;10.20;99.90;;;;;;4978584;28;20031;-80
2021/10/20 05:19:06;;;;;;;1.25;0.93;;;10.20;99.90;;;;;;4977866;28;20446;-79
2021/10/20 05:21:32;;;;;;;1.08;0.98;;;10.20;99.90;;;;;;4978446;28;20035;-80
2021/10/20 05:23:58;;;;;;;0.90;0.82;;;10.20;99.90;;;;;;4961166;28;20035;-79
2021/10/20 05:26:24;;;;;;;0.93;0.70;;;10.20;99.90;;;;;;4983014;28;20014;-80
2021/10/20 05:28:49;;;;;;;1.50;1.00;;;10.20;99.90;;;;;;4996530;28;20022;-79
2021/10/20 05:31:18;;;;;;;1.20;1.10;;;10.20;99.90;;;;;;4996862;28;20398;-83
2021/10/20 05:33:44;;;;;;;1.35;1.00;;;10.20;99.90;;;;;;4979077;28;20030;-80
2021/10/20 05:36:10;;;;;;;1.23;1.00;;;10.20;99.90;;;;;;4998428;28;20030;-80
2021/10/20 05:38:36;;;;;;;1.00;0.90;;;10.30;99.90;;;;;;4997255;28;20038;-80
2021/10/20 05:41:03;;;;;;;1.27;1.17;;;10.30;99.90;;;;;;4997103;28;20046;-80
2021/10/20 05:43:29;;;;;;;1.05;1.00;;;10.30;99.90;;;;;;4996336;28;20018;-79
2021/10/20 05:45:55;;;;;;;1.45;1.02;;;10.30;99.90;;;;;;4997767;28;20486;-80
2021/10/20 05:48:23;;;;;;;2.03;1.13;;;10.30;99.90;;;;;;4996863;28;20023;-80
2021/10/20 05:50:50;;;;;;;1.85;1.35;;;10.40;99.90;;;;;;4996416;28;20030;-79
2021/10/20 05:53:16;;;;;;;2.10;1.30;;;10.40;99.90;;;;;;4980035;28;20046;-80
2021/10/20 05:55:43;;;;;;;4.35;1.63;;;10.40;99.90;;;;;;4977903;28;20027;-80
2021/10/20 05:58:10;;;;;;;3.17;2.00;;;10.50;99.90;;;;;;4997981;28;20611;-80
2021/10/20 06:00:36;;;;;;;2.72;1.65;;;10.60;99.90;;;;;;4996969;28;20112;-79
2021/10/20 06:03:02;;;;;;;3.17;1.50;;;10.60;99.90;;;;;;4980288;28;20026;-79
2021/10/20 06:05:28;;;;;;;1.95;1.52;;;10.70;99.90;;;;;;4980493;28;20022;-80
2021/10/20 06:07:54;;;;;;;1.63;1.27;;;10.80;99.90;;;;;;4987049;28;20105;-80
2021/10/20 06:10:19;;;;;;;1.95;1.30;;;10.80;99.90;;;;;;5003943;28;20052;-80
2021/10/20 06:12:45;;;;;;;1.85;1.23;;;10.80;99.90;;;;;;5003867;28;20026;-80
2021/10/20 06:15:11;;;;;;;3.45;1.50;;;10.80;99.90;;;;;;5004013;28;20472;-80
2021/10/20 06:17:38;;;;;;;2.33;1.50;;;10.80;99.90;;;;;;5004116;28;20112;-79
2021/10/20 06:20:06;;;;;;;1.98;1.80;;;10.80;99.90;;;;;;5003305;28;20105;-79
2021/10/20 06:22:33;;;;;;;2.88;1.80;;;10.80;99.90;;;;;;4973989;28;20023;-79
2021/10/20 06:24:58;;;;;;;3.17;1.80;;;10.80;99.90;;;;;;4985416;28;20042;-81
2021/10/20 06:27:25;;;;;;;4.97;2.45;;;10.90;99.90;;;;;;4984321;28;20026;-79
2021/10/20 06:29:52;;;;;;;7.20;2.30;;;10.90;99.90;;;;;;5008195;28;20030;-82
2021/10/20 06:32:17;;;;;;;5.32;1.85;;;10.90;99.90;;;;;;5008379;28;20029;-80
2021/10/20 06:34:43;;;;;;;2.22;1.70;;;10.90;99.90;;;;;;5009853;28;20050;-79
2021/10/20 06:37:09;;;;;;;5.40;1.63;;;11.00;99.90;;;;;;4994214;28;20109;-79
2021/10/20 06:39:36;;;;;;;2.75;1.50;;;11.00;99.90;;;;;;5011649;28;20040;-80
2021/10/20 06:42:01;;;;;;;2.00;1.58;;;11.10;99.90;;;;;;5009654;28;20014;-80
2021/10/20 06:44:27;;;;;;;1.70;1.20;;;11.10;99.90;;;;;;5013425;28;20041;-81
2021/10/20 06:46:53;;;;;;;2.00;1.30;;;11.10;99.90;;;;;;5013338;28;20030;-80
2021/10/20 06:49:19;;;;;;;2.15;1.25;;;11.20;99.90;;;;;;4989610;28;20023;-80
2021/10/20 06:51:46;;;;;;;3.15;1.27;;;11.30;99.90;;;;;;5005534;28;20057;-80
2021/10/20 06:54:18;;;;;;;2.40;1.40;;;11.30;99.90;;;;;;5006053;28;20031;-81
2021/10/20 06:56:46;;;;;;;2.78;1.70;;;11.40;99.90;;;;;;4997966;28;20018;-80
2021/10/20 06:59:11;;;;;;;1.70;1.60;;;11.50;99.90;;;;;;5014566;28;20106;-80
2021/10/20 07:01:37;;;;;;;2.40;1.65;;;11.60;99.90;;;;;;4997257;28;20026;-80
2021/10/20 07:04:03;;;;;;;3.92;1.50;;;11.70;99.90;;;;;;4995071;28;20034;-81
2021/10/20 07:06:29;;;;;;;3.80;2.15;;;11.80;99.90;;;;;;4996189;28;20022;-80
2021/10/20 07:08:58;;;;;;;1.95;1.48;;;11.90;99.90;;;;;;5012767;28;20027;-80
2021/10/20 07:11:23;;;;;;;2.75;1.60;;;12.00;99.90;;;;;;4994467;28;20054;-80
2021/10/20 07:13:50;;;;;;;3.72;2.22;;;12.10;99.90;;;;;;4995796;28;20038;-80
2021/10/20 07:16:16;;;;;;;4.68;2.10;;;12.20;99.90;;;;;;4996856;28;20095;-81
2021/10/20 07:18:42;;;;;;;5.78;2.83;;;12.30;99.90;;;;;;4993147;28;20026;-81
2021/10/20 07:21:08;;;;;;;2.60;2.00;;;12.50;99.90;;;;;;4993398;28;20065;-81
2021/10/20 07:23:34;;;;;;;2.85;2.08;;;12.60;99.90;;;;;;4993814;28;20031;-80
2021/10/20 07:26:00;;;;;;;6.53;2.53;;;12.80;99.90;;;;;;4986911;28;20031;-81
2021/10/20 07:28:26;;;;;;;3.85;2.08;;;12.90;99.90;;;;;;5013497;28;20030;-79
2021/10/20 07:30:51;;;;;;;4.35;2.47;;;13.00;99.90;;;;;;5012915;28;20022;-80
2021/10/20 07:33:17;;;;;;;3.33;2.22;;;13.20;99.90;;;;;;4994267;28;20038;-80
2021/10/20 07:35:43;;;;;;;4.60;2.30;;;13.30;99.90;;;;;;5012872;28;20101;-81
2021/10/20 07:38:09;;;;;;;9.10;2.90;;;13.50;99.90;;;;;;5012668;28;20026;-81
2021/10/20 07:40:35;;;;;;;7.22;3.20;;;13.80;99.90;;;;;;5012881;28;20029;-81
2021/10/20 07:43:00;;;;;;;4.93;2.45;;;13.90;99.90;;;;;;5012638;28;20070;-81
2021/10/20 07:45:26;;;;;;;5.03;2.22;;;14.20;99.90;;;;;;5012261;28;20031;-81
2021/10/20 07:47:52;;;;;;;3.03;2.30;;;14.40;99.20;;;;;;5012581;28;20023;-80
2021/10/20 07:50:20;;;;;;;4.50;2.50;;;14.60;98.10;;;;;;5013082;28;20031;-81
2021/10/20 07:52:50;;;;;;;2.92;2.25;;;14.80;97.30;;;;;;5006542;28;20030;-81
2021/10/20 07:55:25;;;;;;;5.25;2.80;;;15.00;96.70;;;;;;5000637;28;20022;-81
2021/10/20 07:57:52;;;;;;;4.95;2.58;;;15.20;95.80;;;;;;4984399;28;20026;-81
2021/10/20 08:00:18;;;;;;;4.90;2.35;;;15.40;95.10;;;;;;5010871;28;20060;-80
2021/10/20 08:02:43;;;;;;;3.35;2.03;;;15.60;94.40;;;;;;5011147;28;20110;-81
2021/10/20 08:05:13;;;;;;;3.45;2.25;;;15.70;93.80;;;;;;4991902;28;20073;-80
2021/10/20 08:07:44;;;;;;;4.13;1.95;;;16.00;93.10;;;;;;4992135;28;20038;-81
2021/10/20 08:10:15;;;;;;;3.35;2.15;;;16.20;92.50;;;;;;4991991;28;20025;-82
2021/10/20 08:12:43;;;;;;;6.25;1.83;;;16.40;91.80;;;;;;4991821;28;20019;-81
2021/10/20 08:15:10;;;;;;;2.35;1.58;;;16.60;91.20;;;;;;4995633;28;20085;-81
2021/10/20 08:17:37;;;;;;;1.67;1.58;;;16.80;90.70;;;;;;5011266;28;20022;-80
2021/10/20 08:20:05;;;;;;;1.67;1.58;;;16.90;90.00;;;;;;5008308;28;20026;-80
2021/10/20 08:22:31;;;;;;;4.15;1.70;;;17.20;88.90;;;;;;5010143;28;20046;-81
2021/10/20 08:24:56;;;;;;;2.53;1.67;;;17.40;87.30;;;;;;4998527;28;20062;-80
2021/10/20 08:27:22;;;;;;;9.23;3.03;;;17.60;85.80;;;;;;4978595;28;20033;-80
2021/10/20 08:29:48;;;;;;;6.95;2.40;;;17.80;83.40;;;;;;4980667;28;20026;-80
2021/10/20 08:32:14;;;;;;;3.60;2.28;;;17.90;81.40;;;;;;5011919;28;20064;-80
2021/10/20 08:34:40;;;;;;;5.28;2.17;;;18.00;81.00;;;;;;4993070;28;20031;-79
2021/10/20 08:37:05;;;;;;;3.95;1.67;;;18.10;80.20;;;;;;5012074;28;20105;-81
2021/10/20 08:39:31;;;;;;;2.83;1.60;;;18.30;79.30;;;;;;5010763;28;20030;-80
2021/10/20 08:42:00;;;;;;;5.03;1.75;;;18.40;77.70;;;;;;4992146;28;20030;-80
2021/10/20 08:44:27;;;;;;;7.75;1.38;;;18.50;75.30;;;;;;5011870;28;20039;-81
2021/10/20 08:46:53;;;;;;;1.77;1.30;;;18.70;74.80;;;;;;4993842;28;20022;-80
2021/10/20 08:49:19;;;;;;;3.28;1.40;;;18.80;73.70;;;;;;5010062;28;20133;-80
2021/10/20 08:51:48;;;;;;;2.63;1.23;;;18.90;72.80;;;;;;4985327;28;20026;-80
2021/10/20 08:54:14;;;;;;;3.55;1.85;;;19.10;70.40;;;;;;4996109;28;20031;-80
2021/10/20 08:56:43;;;;;;;2.85;1.50;;;19.20;69.80;;;;;;4991584;28;20037;-80
2021/10/20 08:59:13;;;;;;;3.28;1.25;;;19.30;67.80;;;;;;5008219;28;20069;-80
2021/10/20 09:01:39;;;;;;;3.15;1.02;;;19.40;67.10;;;;;;4990022;28;20022;-80
2021/10/20 09:04:09;;;;;;;1.88;1.20;;;19.50;67.00;;;;;;4991337;28;20034;-77
2021/10/20 09:06:36;;;;;;;1.52;1.10;;;19.60;66.10;;;;;;5009236;28;20018;-80
2021/10/20 09:09:04;;;;;;;3.65;1.38;;;19.80;65.40;;;;;;5008660;28;20037;-80
2021/10/20 09:14:14;;;;;;;5.00;1.13;;;20.10;62.10;;;;;;4990822;28;20026;-80
2021/10/20 09:16:42;;;;;;;2.85;1.17;;;20.20;61.50;;;;;;4990385;28;20022;-79
2021/10/20 09:19:15;;;;;;;1.88;1.30;;;20.20;60.70;;;;;;4973161;28;20368;-80
2021/10/20 09:21:54;;;;;;;2.80;1.60;;;20.10;58.90;;;;;;4975113;28;20027;-80
2021/10/20 09:24:27;;;;;;;1.38;1.10;;;20.20;59.10;;;;;;4973809;28;20042;-81
2021/10/20 09:26:57;;;;;;;1.85;1.20;;;20.20;58.70;;;;;;4992678;28;20046;-81
2021/10/20 09:29:25;;;;;;;4.38;1.10;;;20.40;58.70;;;;;;4985170;28;20031;-81
2021/10/20 09:31:51;;;;;;;2.95;0.98;;;20.60;57.90;;;;;;4987809;28;20026;-81
2021/10/20 09:34:17;;;;;;;0.75;0.68;;;20.70;57.50;;;;;;4990955;28;20034;-81
2021/10/20 09:36:44;;;;;;;2.20;1.00;;;20.80;57.20;;;;;;4987953;28;20031;-81
2021/10/20 09:39:13;;;;;;;0.90;0.90;;;20.80;56.30;;;;;;5006407;28;20018;-81
2021/10/20 09:41:40;;;;;;;1.73;1.20;;;20.90;55.80;;;;;;5005435;28;20030;-82
2021/10/20 09:44:13;;;;;;;2.45;1.25;;;20.90;54.40;;;;;;5006760;28;20076;-80
2021/10/20 09:46:43;;;;;;;1.52;1.10;;;21.00;54.30;;;;;;5005975;28;20029;-81
2021/10/20 09:49:22;;;;;;;5.45;1.95;;;21.00;53.90;;;;;;5006622;28;20380;-81
2021/10/20 09:51:56;;;;;;;4.22;1.92;;;21.00;51.80;;;;;;5007281;28;20026;-80
2021/10/20 09:54:34;;;;;;;3.30;1.33;;;21.00;51.60;;;;;;4985735;28;20054;-81
2021/10/20 09:57:02;;;;;;;1.52;1.42;;;20.90;51.10;;;;;;5000198;28;20046;-80
2021/10/20 09:59:29;;;;;;;1.55;1.30;;;21.00;51.10;;;;;;5012637;28;20053;-80
2021/10/20 10:01:56;;;;;;;2.25;1.33;;;21.10;50.90;;;;;;4992505;28;20382;-82
2021/10/20 10:04:22;;;;;;;1.58;1.25;;;21.20;50.80;;;;;;4988384;28;20086;-81
2021/10/20 10:06:49;;;;;;;5.30;1.55;;;21.10;50.90;;;;;;4987886;28;20472;-81
2021/10/20 10:09:15;;;;;;;1.83;1.27;;;21.20;50.90;;;;;;4986341;28;20035;-80
2021/10/20 10:11:47;;;;;;;2.17;1.27;;;21.30;50.40;;;;;;4985233;28;20023;-80
2021/10/20 10:14:14;;;;;;;0.70;0.70;;;21.40;50.50;;;;;;4999872;28;20140;-81
2021/10/20 10:16:42;;;;;;;3.13;1.10;;;21.40;50.80;;;;;;4986316;28;20080;-81
2021/10/20 10:19:11;;;;;;;0.98;0.98;;;21.40;50.60;;;;;;5004408;28;20026;-80
2021/10/20 10:21:40;;;;;;;1.20;1.10;;;21.40;51.20;;;;;;4994686;28;20113;-81
2021/10/20 10:24:17;;;;;;;2.42;1.10;;;21.50;50.70;;;;;;5009481;28;20039;-81
2021/10/20 10:27:08;;;;;;;1.20;1.00;;;21.60;50.40;;;;;;5001392;28;20037;-81
2021/10/20 10:29:45;;;;;;;1.33;1.25;;;21.70;50.40;;;;;;5004698;28;20058;-81
2021/10/20 10:32:11;;;;;;;1.70;1.38;;;21.90;50.20;;;;;;5004951;28;20037;-80
2021/10/20 10:34:47;;;;;;;2.15;1.30;;;22.00;50.30;;;;;;4988327;28;20023;-81
2021/10/20 10:37:24;;;;;;;1.00;0.88;;;22.10;50.70;;;;;;5005007;28;20022;-81
2021/10/20 10:39:50;;;;;;;6.63;1.15;;;22.00;50.40;;;;;;5007415;28;20022;-81
2021/10/20 10:42:15;;;;;;;2.78;1.52;;;22.10;50.20;;;;;;5007695;28;20010;-81
2021/10/20 10:44:50;;;;;;;2.25;1.25;;;22.10;50.30;;;;;;4991003;28;20031;-81
2021/10/20 10:47:21;;;;;;;1.92;1.13;;;22.30;50.50;;;;;;4992769;28;20030;-81
2021/10/20 10:49:55;;;;;;;3.00;1.60;;;22.40;50.90;;;;;;5009797;28;20349;-81
2021/10/20 10:52:34;;;;;;;1.52;0.80;;;22.50;50.90;;;;;;4992164;28;20033;-80
2021/10/20 10:55:08;;;;;;;1.52;1.27;;;22.30;50.50;;;;;;4986541;28;20069;-81
2021/10/20 10:57:41;;;;;;;1.45;1.23;;;22.30;50.70;;;;;;4981707;28;20019;-80
2021/10/20 11:00:09;;;;;;;1.60;1.50;;;22.50;50.20;;;;;;4993923;28;20080;-80
2021/10/20 11:02:50;;;;;;;2.13;1.35;;;22.40;49.50;;;;;;4993544;28;20038;-81
2021/10/20 11:05:30;;;;;;;1.58;1.30;;;22.10;49.60;;;;;;4986935;28;20061;-80
2021/10/20 11:08:02;;;;;;;2.20;1.30;;;22.00;49.90;;;;;;4992641;28;20022;-80
2021/10/20 11:10:28;;;;;;;;;;;21.90;50.30;;;;;;5006618;28;20424;-81
2021/10/20 11:12:56;;;;;;;1.25;1.15;;;21.90;50.50;;;;;;5007254;28;19912;-80
2021/10/20 11:15:29;;;;;;;2.03;1.83;;;22.00;50.60;;;;;;4990249;28;20080;-81
2021/10/20 11:18:06;;;;;;;3.15;1.90;;;22.00;50.20;;;;;;5009969;28;20118;-81
2021/10/20 11:20:46;;;;;;;2.55;1.35;;;22.20;50.30;;;;;;4992213;28;20538;-80
2021/10/20 11:23:32;;;;;;;;;;;;;;;;;;;;;
2021/10/20 11:26:10;;;;;;;2.55;1.70;;;22.60;48.50;;;;;;5001698;28;20069;-82
2021/10/20 11:28:49;;;;;;;1.70;1.25;;;22.80;48.10;;;;;;4991370;28;20065;-81
2021/10/20 11:31:20;;;;;;;1.88;1.77;;;22.80;48.20;;;;;;5012011;28;20023;-80
2021/10/20 11:33:53;;;;;;;3.33;1.73;;;22.70;47.80;;;;;;5009981;28;20023;-81
2021/10/20 11:36:29;;;;;;;3.00;1.75;;;22.60;48.00;;;;;;4990081;28;20045;-81
2021/10/20 11:39:05;;;;;;;4.78;1.92;;;22.60;48.50;;;;;;4991095;28;20109;-80
2021/10/20 11:41:33;;;;;;;1.60;1.48;;;22.70;48.50;;;;;;4981261;28;20051;-80
2021/10/20 11:43:59;;;;;;;1.70;1.30;;;22.60;48.80;;;;;;4983281;28;20488;-80
2021/10/20 11:46:28;;;;;;;3.30;2.00;;;22.60;49.20;;;;;;4989181;28;20037;-80
2021/10/20 11:48:56;;;;;;;1.83;1.40;;;22.70;48.90;;;;;;4996837;28;20029;-79
2021/10/20 11:51:22;;;;;;;2.03;1.50;;;22.70;48.90;;;;;;4998338;28;20025;-79
2021/10/20 11:53:48;;;;;;;5.00;1.50;;;22.60;49.40;;;;;;4997856;28;20030;-79
2021/10/20 11:56:14;;;;;;;2.95;1.85;;;22.60;49.30;;;;;;4986565;28;20137;-79
2021/10/20 11:58:42;;;;;;;1.70;1.58;;;22.60;49.60;;;;;;4978753;28;20050;-79
2021/10/20 12:01:08;;;;;;;3.72;1.70;;;22.70;49.00;;;;;;4988269;28;20034;-79
2021/10/20 12:03:38;;;;;;;2.95;1.80;;;23.00;48.80;;;;;;4999672;28;20093;-79
2021/10/20 12:06:08;;;;;;;2.17;1.88;;;23.30;48.10;;;;;;4984178;28;20484;-79
2021/10/20 12:08:34;;;;;;;2.33;1.70;;;23.50;47.80;;;;;;4978471;28;20101;-78
2021/10/20 12:11:01;;;;;;;2.55;2.00;;;23.30;48.00;;;;;;4986678;28;20348;-80
2021/10/20 12:13:27;;;;;;;1.70;1.60;;;23.30;48.50;;;;;;4981141;28;20030;-78
2021/10/20 12:15:54;;;;;;;5.72;2.33;;;23.40;48.60;;;;;;4993596;28;20022;-79
2021/10/20 12:18:19;;;;;;;2.22;1.70;;;23.50;48.10;;;;;;4994392;28;20031;-80
2021/10/20 12:20:52;;;;;;;2.30;1.90;;;23.70;47.90;;;;;;5001290;28;20025;-80
2021/10/20 12:23:18;;;;;;;4.75;1.83;;;23.90;46.50;;;;;;4997720;28;20030;-79
2021/10/20 12:25:45;;;;;;;3.90;1.50;;;23.90;47.00;;;;;;4989858;28;20487;-78
2021/10/20 12:28:11;;;;;;;3.75;1.40;;;23.70;46.90;;;;;;4998145;28;20057;-80
2021/10/20 12:30:41;;;;;;;2.42;1.52;;;23.60;46.30;;;;;;4998753;28;20007;-79
2021/10/20 12:33:09;;;;;;;2.75;1.90;;;23.60;46.10;;;;;;4999601;28;20034;-79
2021/10/20 12:35:35;;;;;;;2.00;1.40;;;23.60;46.60;;;;;;5001397;28;20412;-80
2021/10/20 12:38:04;;;;;;;2.10;1.90;;;23.50;46.60;;;;;;5003010;28;20033;-78
2021/10/20 12:40:30;;;;;;;2.70;2.00;;;23.40;47.20;;;;;;5002505;28;20133;-78
2021/10/20 12:42:58;;;;;;;4.50;2.50;;;23.50;47.60;;;;;;4996946;28;20042;-78
2021/10/20 12:45:26;;;;;;;2.05;1.73;;;23.60;47.80;;;;;;5003251;28;20018;-80
2021/10/20 12:47:54;;;;;;;2.20;1.73;;;23.70;47.20;;;;;;4999950;28;20030;-79
2021/10/20 12:50:29;;;;;;;1.92;1.73;;;23.60;47.60;;;;;;5001057;28;20026;-79
2021/10/20 12:52:55;;;;;;;2.97;1.90;;;23.60;48.10;;;;;;5000984;28;20081;-80